createdAt,value
2023-03-15T00:01:55.181Z,97072.31
2023-03-15T00:05:00.614Z,97081.31
2023-03-15T00:08:07.048Z,97093.19
2023-03-15T00:11:15.852Z,97096.56
2023-03-15T00:14:22.461Z,97147.72
2023-03-15T00:17:27.858Z,97137.16
2023-03-15T00:20:34.796Z,97162.31
2023-03-15T00:23:40.182Z,97143.56
2023-03-15T00:26:49.137Z,97180.09
2023-03-15T00:29:54.561Z,97196.28
2023-03-15T00:33:00.917Z,97244.78
2023-03-15T00:36:10.103Z,97244.16
2023-03-15T00:39:16.490Z,97240.09
2023-03-15T00:42:27.775Z,97222.63
2023-03-15T00:45:34.056Z,97234.72
2023-03-15T00:48:39.764Z,97246.16
2023-03-15T00:51:46.192Z,97262.06
2023-03-15T00:54:55.773Z,97268.66
2023-03-15T00:58:04.944Z,97279.97
2023-03-15T01:01:12.469Z,97304.19
2023-03-15T01:04:18.917Z,97301.59
2023-03-15T01:07:24.415Z,97299.06
2023-03-15T01:10:30.721Z,97324.59
2023-03-15T01:13:39.879Z,97331.53
2023-03-15T01:16:46.223Z,97321.66
2023-03-15T01:19:52.448Z,97331.22
2023-03-15T01:22:58.721Z,97350.69
2023-03-15T01:26:05.081Z,97333.09
2023-03-15T01:29:15.191Z,97341.19
2023-03-15T01:32:20.931Z,97362.59
2023-03-15T01:35:27.336Z,97377.22
2023-03-15T01:38:33.587Z,97354.19
2023-03-15T01:41:40.980Z,97367.66
2023-03-15T01:45:00.209Z,97367.19
2023-03-15T01:48:07.607Z,97369.72
2023-03-15T01:51:24.745Z,97348.72
2023-03-15T01:54:40.736Z,97368.19
2023-03-15T01:57:56.219Z,97387.59
2023-03-15T02:01:09.268Z,97392.06
2023-03-15T02:04:28.081Z,97384.00
2023-03-15T02:07:35.387Z,97396.25
2023-03-15T02:10:48.281Z,97375.81
2023-03-15T02:13:59.921Z,97390.84
2023-03-15T02:17:08.919Z,97382.75
2023-03-15T02:20:36.634Z,97407.81
2023-03-15T02:23:42.226Z,97394.06
2023-03-15T02:26:57.236Z,97408.13
2023-03-15T02:30:09.000Z,97403.88
2023-03-15T02:33:28.218Z,97417.75
2023-03-15T02:36:34.413Z,97409.69
2023-03-15T02:39:40.739Z,97421.44
2023-03-15T02:42:46.964Z,97422.94
2023-03-15T02:45:56.475Z,97414.41
2023-03-15T02:49:03.804Z,97420.59
2023-03-15T02:52:12.366Z,97437.41
2023-03-15T02:55:19.725Z,97433.47
2023-03-15T02:58:26.354Z,97441.84
2023-03-15T03:01:37.350Z,97448.47
2023-03-15T03:04:44.587Z,97442.81
2023-03-15T03:07:51.112Z,97445.41
2023-03-15T03:10:57.562Z,97437.63
2023-03-15T03:14:03.366Z,97434.72
2023-03-15T03:17:12.748Z,97448.31
2023-03-15T03:20:19.238Z,97436.13
2023-03-15T03:23:27.433Z,97453.38
2023-03-15T03:26:32.927Z,97465.97
2023-03-15T03:29:39.272Z,97456.72
2023-03-15T03:32:47.864Z,97465.47
2023-03-15T03:35:54.521Z,97470.19
2023-03-15T03:39:00.234Z,97476.94
2023-03-15T03:42:07.160Z,97491.72
2023-03-15T03:45:13.985Z,97489.13
2023-03-15T03:48:26.397Z,97496.88
2023-03-15T03:51:34.164Z,97500.13
2023-03-15T03:54:43.040Z,97506.41
2023-03-15T03:57:48.882Z,97514.22
2023-03-15T04:01:04.396Z,97522.59
2023-03-15T04:04:16.321Z,97518.94
2023-03-15T04:07:23.873Z,97525.34
2023-03-15T04:10:30.000Z,97530.88
2023-03-15T04:13:36.968Z,97536.94
2023-03-15T04:16:44.719Z,97541.78
2023-03-15T04:19:59.420Z,97532.69
2023-03-15T04:23:09.121Z,97539.56
2023-03-15T04:26:28.691Z,97537.88
2023-03-15T04:29:45.021Z,97544.00
2023-03-15T04:33:14.073Z,97553.63
2023-03-15T04:36:48.620Z,97550.69
2023-03-15T04:40:50.836Z,97544.25
2023-03-15T04:44:45.793Z,97552.78
2023-03-15T04:48:13.966Z,97553.50
2023-03-15T04:52:03.532Z,97555.59
2023-03-15T04:55:21.172Z,97569.34
2023-03-15T04:58:45.122Z,97564.16
2023-03-15T05:02:42.085Z,97571.75
2023-03-15T05:06:08.407Z,97565.69
2023-03-15T05:09:58.274Z,97579.88
2023-03-15T05:13:14.933Z,97594.75
2023-03-15T05:17:08.952Z,97593.78
2023-03-15T05:21:10.745Z,97599.09
2023-03-15T05:24:23.887Z,97602.84
2023-03-15T05:28:21.434Z,97594.34
2023-03-15T05:31:42.701Z,97597.56
2023-03-15T05:35:10.119Z,97599.41
2023-03-15T05:38:35.532Z,97599.28
2023-03-15T05:42:00.643Z,97591.41
2023-03-15T05:45:28.584Z,97597.31
2023-03-15T05:48:54.045Z,97607.97
2023-03-15T05:52:16.234Z,97606.91
2023-03-15T05:55:40.381Z,97610.69
2023-03-15T05:58:49.338Z,97618.50
2023-03-15T06:02:56.773Z,97639.59
2023-03-15T06:06:50.159Z,97653.19
2023-03-15T06:09:57.213Z,97649.63
2023-03-15T06:13:05.760Z,97656.63
2023-03-15T06:16:11.592Z,97649.44
2023-03-15T06:19:26.141Z,97671.97
2023-03-15T06:22:33.361Z,97683.97
2023-03-15T06:25:59.608Z,97689.19
2023-03-15T06:29:07.100Z,97690.47
2023-03-15T06:32:13.772Z,97719.47
2023-03-15T06:35:23.461Z,97698.47
2023-03-15T06:38:30.295Z,97715.34
2023-03-15T06:41:35.840Z,97718.75
2023-03-15T06:44:50.135Z,97715.69
2023-03-15T06:47:58.394Z,97727.06
2023-03-15T06:51:09.473Z,97739.34
2023-03-15T06:54:19.684Z,97761.03
2023-03-15T06:57:28.719Z,97754.59
2023-03-15T07:00:34.164Z,97768.16
2023-03-15T07:03:40.443Z,97768.78
2023-03-15T07:06:48.592Z,97769.72
2023-03-15T07:09:55.340Z,97768.78
2023-03-15T07:13:00.968Z,97771.47
2023-03-15T07:16:08.095Z,97777.78
2023-03-15T07:19:13.542Z,97783.41
2023-03-15T07:22:23.014Z,97773.91
2023-03-15T07:25:28.604Z,97782.13
2023-03-15T07:28:34.944Z,97788.91
2023-03-15T07:31:40.393Z,97795.47
2023-03-15T07:34:46.873Z,97791.75
2023-03-15T07:37:55.125Z,97801.16
2023-03-15T07:41:05.200Z,97798.31
2023-03-15T07:44:11.007Z,97793.94
2023-03-15T07:47:17.289Z,97803.25
2023-03-15T07:50:22.932Z,97817.47
2023-03-15T07:53:32.185Z,97809.63
2023-03-15T07:56:38.107Z,97824.50
2023-03-15T07:59:44.403Z,97850.81
2023-03-15T08:02:50.558Z,97837.13
2023-03-15T08:05:57.302Z,97824.44
2023-03-15T08:09:06.919Z,97816.03
2023-03-15T08:12:14.073Z,97835.16
2023-03-15T08:15:20.178Z,97836.50
2023-03-15T08:18:29.149Z,97844.69
2023-03-15T08:21:34.972Z,97856.66
2023-03-15T08:24:45.670Z,97861.00
2023-03-15T08:27:51.406Z,97857.41
2023-03-15T08:30:57.666Z,97863.66
2023-03-15T08:34:04.228Z,97864.06
2023-03-15T08:37:10.761Z,97866.34
2023-03-15T08:40:26.908Z,97878.88
2023-03-15T08:43:33.378Z,97871.28
2023-03-15T08:46:39.157Z,97865.25
2023-03-15T08:49:45.637Z,97872.03
2023-03-15T08:52:51.138Z,97879.06
2023-03-15T08:56:00.798Z,97882.44
2023-03-15T08:59:06.250Z,97885.94
2023-03-15T09:02:14.653Z,97888.47
2023-03-15T09:05:20.726Z,97898.34
2023-03-15T09:08:27.196Z,97882.00
2023-03-15T09:11:35.479Z,97896.38
2023-03-15T09:14:41.952Z,97896.72
2023-03-15T09:17:47.823Z,97890.44
2023-03-15T09:20:55.023Z,97899.44
2023-03-15T09:24:01.252Z,97897.91
2023-03-15T09:27:11.935Z,97893.91
2023-03-15T09:30:19.049Z,97905.38
2023-03-15T09:33:26.194Z,97896.50
2023-03-15T09:36:31.677Z,97898.34
2023-03-15T09:39:37.984Z,97907.47
2023-03-15T09:43:33.325Z,97899.88
2023-03-15T09:46:55.699Z,97898.28
2023-03-15T09:50:10.457Z,97915.75
2023-03-15T09:53:28.158Z,97904.50
2023-03-15T09:56:41.218Z,97848.63
2023-03-15T09:59:57.005Z,97913.88
2023-03-15T10:03:07.422Z,97766.28
2023-03-15T10:06:24.561Z,97921.22
2023-03-15T10:09:36.116Z,97916.88
2023-03-15T10:12:54.922Z,97928.28
2023-03-15T10:16:26.988Z,97912.84
2023-03-15T10:19:52.161Z,97919.72
2023-03-15T10:23:04.442Z,97925.16
2023-03-15T10:26:21.600Z,97929.00
2023-03-15T10:29:31.411Z,97929.09
2023-03-15T10:32:45.422Z,97937.34
2023-03-15T10:35:56.123Z,97937.19
2023-03-15T10:39:06.025Z,97939.66
2023-03-15T10:42:28.696Z,97930.19
2023-03-15T10:45:35.303Z,97940.13
2023-03-15T10:48:58.570Z,97939.59
2023-03-15T10:52:05.929Z,97932.94
2023-03-15T10:55:18.263Z,97950.19
2023-03-15T10:58:31.636Z,97948.19
2023-03-15T11:01:38.607Z,97941.69
2023-03-15T11:04:54.333Z,97934.69
2023-03-15T11:08:02.760Z,97937.50
2023-03-15T11:11:10.821Z,97932.16
2023-03-15T11:14:17.248Z,97930.41
2023-03-15T11:17:28.786Z,97936.22
2023-03-15T11:20:43.757Z,97953.00
2023-03-15T11:23:54.085Z,97948.31
2023-03-15T11:27:04.616Z,97951.38
2023-03-15T11:30:19.227Z,97954.84
2023-03-15T11:33:46.616Z,97949.13
2023-03-15T11:37:08.454Z,97936.34
2023-03-15T11:40:25.100Z,97934.66
2023-03-15T11:43:50.138Z,97936.88
2023-03-15T11:47:06.200Z,97951.53
2023-03-15T11:50:17.927Z,97945.97
2023-03-15T11:53:36.405Z,97945.81
2023-03-15T11:56:57.080Z,97945.66
2023-03-15T12:00:56.711Z,97961.16
2023-03-15T12:04:46.430Z,97971.91
2023-03-15T12:08:25.371Z,97955.19
2023-03-15T12:11:45.591Z,97955.53
2023-03-15T12:14:51.251Z,97960.63
2023-03-15T12:18:06.455Z,97959.72
2023-03-15T12:21:19.859Z,97951.53
2023-03-15T12:24:32.180Z,97964.13
2023-03-15T12:27:43.506Z,97950.22
2023-03-15T12:31:02.147Z,97963.28
2023-03-15T12:34:18.181Z,97964.97
2023-03-15T12:37:36.797Z,97968.81
2023-03-15T12:40:55.891Z,97968.34
2023-03-15T12:44:23.457Z,97972.03
2023-03-15T12:47:48.261Z,97982.69
2023-03-15T12:51:04.075Z,97977.25
2023-03-15T12:54:19.486Z,97985.56
2023-03-15T12:57:31.103Z,97988.00
2023-03-15T13:00:45.688Z,97989.69
2023-03-15T13:03:51.294Z,97985.78
2023-03-15T13:07:26.672Z,97984.47
2023-03-15T13:11:03.438Z,97984.31
2023-03-15T13:14:41.831Z,97983.88
2023-03-15T13:17:55.411Z,97994.28
2023-03-15T13:21:20.207Z,97992.56
2023-03-15T13:24:45.496Z,97998.50
2023-03-15T13:28:02.566Z,97996.91
2023-03-15T13:31:20.538Z,97993.22
2023-03-15T13:34:31.129Z,98000.22
2023-03-15T13:37:42.071Z,98019.00
2023-03-15T13:40:52.494Z,98009.63
2023-03-15T13:44:01.316Z,98027.47
2023-03-15T13:47:07.811Z,98036.81
2023-03-15T13:50:19.333Z,97903.59
2023-03-15T13:53:46.554Z,98027.28
2023-03-15T13:57:09.167Z,98038.28
2023-03-15T14:00:23.486Z,98043.72
2023-03-15T14:03:31.400Z,98033.13
2023-03-15T14:06:38.206Z,98040.44
2023-03-15T14:09:43.669Z,98037.47
2023-03-15T14:12:54.602Z,98049.25
2023-03-15T14:16:04.108Z,98057.84
2023-03-15T14:19:23.467Z,98065.84
2023-03-15T14:22:29.741Z,98063.38
2023-03-15T14:25:39.745Z,98052.63
2023-03-15T14:28:54.277Z,98057.16
2023-03-15T14:32:05.721Z,98068.44
2023-03-15T14:35:26.174Z,98056.84
2023-03-15T14:38:42.068Z,98067.69
2023-03-15T14:41:48.355Z,98046.94
2023-03-15T14:44:57.752Z,98057.63
2023-03-15T14:48:08.685Z,98051.47
2023-03-15T14:51:20.750Z,98031.75
2023-03-15T14:54:27.296Z,98060.75
2023-03-15T14:57:33.574Z,98055.53
2023-03-15T15:00:42.272Z,98048.94
2023-03-15T15:03:58.149Z,98059.22
2023-03-15T15:07:05.323Z,98032.19
2023-03-15T15:10:13.311Z,98047.41
2023-03-15T15:13:24.227Z,98057.22
2023-03-15T15:16:33.691Z,98058.75
2023-03-15T15:19:39.108Z,98054.00
2023-03-15T15:22:46.375Z,98053.78
2023-03-15T15:25:57.205Z,98073.88
2023-03-15T15:29:03.728Z,98065.59
2023-03-15T15:32:12.276Z,98064.31
2023-03-15T15:35:22.613Z,98058.38
2023-03-15T15:38:39.256Z,98067.97
2023-03-15T15:41:45.557Z,98069.81
2023-03-15T15:44:51.035Z,98063.22
2023-03-15T15:48:05.978Z,98073.66
2023-03-15T15:51:28.163Z,98083.00
2023-03-15T15:54:35.905Z,98074.19
2023-03-15T15:57:41.760Z,98086.66
2023-03-15T16:00:48.103Z,98081.91
2023-03-15T16:03:56.625Z,98080.78
2023-03-15T16:07:07.276Z,98072.06
2023-03-15T16:10:22.761Z,98077.28
2023-03-15T16:13:29.309Z,98067.72
2023-03-15T16:16:34.922Z,98088.72
2023-03-15T16:19:44.217Z,98079.69
2023-03-15T16:22:58.748Z,98084.81
2023-03-15T16:26:06.449Z,98088.28
2023-03-15T16:29:22.540Z,98087.00
2023-03-15T16:32:43.418Z,98088.75
2023-03-15T16:35:53.426Z,98089.53
2023-03-15T16:38:59.805Z,98092.97
2023-03-15T16:42:25.899Z,98105.31
2023-03-15T16:45:50.843Z,98097.66
2023-03-15T16:49:15.762Z,98112.38
2023-03-15T16:52:45.111Z,98107.28
2023-03-15T16:56:16.678Z,98109.00
2023-03-15T16:59:23.393Z,98120.63
2023-03-15T17:02:31.671Z,98125.34
2023-03-15T17:05:38.327Z,98133.16
2023-03-15T17:08:46.824Z,98138.72
2023-03-15T17:11:56.147Z,98137.16
2023-03-15T17:15:11.479Z,98140.84
2023-03-15T17:18:22.608Z,98141.69
2023-03-15T17:21:31.546Z,98148.69
2023-03-15T17:24:38.009Z,98147.88
2023-03-15T17:27:47.842Z,98153.91
2023-03-15T17:31:14.047Z,98160.81
2023-03-15T17:34:23.251Z,98163.22
2023-03-15T17:37:38.658Z,98168.38
2023-03-15T17:40:45.624Z,98164.34
2023-03-15T17:43:53.900Z,98167.88
2023-03-15T17:47:04.033Z,98168.84
2023-03-15T17:50:13.916Z,98178.44
2023-03-15T17:53:23.176Z,98170.88
2023-03-15T17:56:30.487Z,98176.47
2023-03-15T17:59:36.342Z,98182.44
2023-03-15T18:02:55.060Z,98189.38
2023-03-15T18:06:05.535Z,98188.31
2023-03-15T18:09:15.609Z,98185.69
2023-03-15T18:12:22.682Z,98180.56
2023-03-15T18:15:29.187Z,98191.97
2023-03-15T18:18:37.865Z,98193.00
2023-03-15T18:21:44.549Z,98187.03
2023-03-15T18:24:50.168Z,98189.91
2023-03-15T18:27:57.006Z,98189.97
2023-03-15T18:31:02.697Z,98190.94
2023-03-15T18:34:16.717Z,98196.56
2023-03-15T18:37:22.744Z,98198.38
2023-03-15T18:40:32.835Z,98203.75
2023-03-15T18:43:38.868Z,98206.38
2023-03-15T18:46:46.233Z,98204.75
2023-03-15T18:50:01.019Z,98206.59
2023-03-15T18:53:11.955Z,98207.56
2023-03-15T18:56:21.580Z,98205.00
2023-03-15T18:59:28.157Z,98209.44
2023-03-15T19:02:34.079Z,98214.66
2023-03-15T19:05:43.771Z,98210.31
2023-03-15T19:08:53.677Z,98206.84
2023-03-15T19:12:00.320Z,98215.19
2023-03-15T19:15:07.141Z,98215.97
2023-03-15T19:18:13.495Z,98219.63
2023-03-15T19:21:23.122Z,98221.56
2023-03-15T19:24:31.652Z,98213.19
2023-03-15T19:27:38.513Z,98227.13
2023-03-15T19:30:45.481Z,98233.50
2023-03-15T19:33:50.880Z,98232.84
2023-03-15T19:37:00.490Z,98235.75
2023-03-15T19:40:08.695Z,98243.16
2023-03-15T19:43:15.199Z,98249.63
2023-03-15T19:46:20.742Z,98253.09
2023-03-15T19:49:28.013Z,98266.22
2023-03-15T19:52:39.030Z,98262.94
2023-03-15T19:55:50.861Z,98264.00
2023-03-15T19:58:57.371Z,98268.44
2023-03-15T20:02:06.152Z,98280.78
2023-03-15T20:05:13.793Z,98270.56
2023-03-15T20:08:27.545Z,98277.56
2023-03-15T20:11:33.154Z,98278.47
2023-03-15T20:14:39.854Z,98268.31
2023-03-15T20:17:54.890Z,98278.94
2023-03-15T20:21:01.898Z,98275.78
2023-03-15T20:24:11.622Z,98277.84
2023-03-15T20:27:18.029Z,98284.97
2023-03-15T20:30:25.013Z,98288.56
2023-03-15T20:33:31.793Z,98288.56
2023-03-15T20:36:37.451Z,98298.06
2023-03-15T20:39:47.244Z,98299.06
2023-03-15T20:42:53.303Z,98293.97
2023-03-15T20:46:01.214Z,98264.28
2023-03-15T20:49:07.171Z,98303.47
2023-03-15T20:52:15.278Z,98306.16
2023-03-15T20:55:24.074Z,98316.56
2023-03-15T20:58:31.490Z,98307.91
2023-03-15T21:01:37.311Z,98314.25
2023-03-15T21:04:44.859Z,98322.41
2023-03-15T21:07:50.358Z,98320.16
2023-03-15T21:10:59.833Z,98335.25
2023-03-15T21:14:09.880Z,98321.56
2023-03-15T21:17:16.359Z,98326.16
2023-03-15T21:20:23.294Z,98337.44
2023-03-15T21:23:33.143Z,98335.00
2023-03-15T21:26:44.174Z,98341.38
2023-03-15T21:29:50.506Z,98351.97
2023-03-15T21:32:56.052Z,98347.66
2023-03-15T21:36:03.645Z,98350.34
2023-03-15T21:39:09.102Z,98352.94
2023-03-15T21:42:18.574Z,98353.00
2023-03-15T21:45:24.970Z,98357.56
2023-03-15T21:48:32.458Z,98355.94
2023-03-15T21:51:38.718Z,98363.91
2023-03-15T21:54:45.213Z,98365.69
2023-03-15T21:57:53.517Z,98359.63
2023-03-15T22:01:01.810Z,98371.03
2023-03-15T22:04:07.370Z,98371.13
2023-03-15T22:07:14.538Z,98379.06
2023-03-15T22:10:20.313Z,98377.56
2023-03-15T22:13:30.248Z,98383.78
2023-03-15T22:16:36.063Z,98389.97
2023-03-15T22:19:42.400Z,98387.69
2023-03-15T22:22:49.313Z,98386.91
2023-03-15T22:25:57.258Z,98388.72
2023-03-15T22:29:05.684Z,98397.50
2023-03-15T22:32:13.399Z,98395.84
2023-03-15T22:35:20.579Z,98394.19
2023-03-15T22:38:29.067Z,98399.38
2023-03-15T22:41:34.486Z,98409.81
2023-03-15T22:44:43.620Z,98408.03
2023-03-15T22:47:49.413Z,98408.78
2023-03-15T22:51:02.068Z,98409.75
2023-03-15T22:54:07.728Z,98412.41
2023-03-15T22:57:20.725Z,98409.91
2023-03-15T23:00:32.585Z,98408.38
2023-03-15T23:03:38.947Z,98418.81
2023-03-15T23:06:44.319Z,98419.78
2023-03-15T23:09:51.728Z,98412.19
2023-03-15T23:12:57.178Z,98425.97
2023-03-15T23:16:06.918Z,98427.78
2023-03-15T23:19:13.614Z,98426.09
2023-03-15T23:22:20.150Z,98426.19
2023-03-15T23:25:29.214Z,98372.81
2023-03-15T23:28:36.916Z,98433.28
2023-03-15T23:31:45.540Z,98439.34
2023-03-15T23:34:52.180Z,98438.59
2023-03-15T23:37:58.237Z,98449.91
2023-03-15T23:41:05.300Z,98445.66
2023-03-15T23:44:10.918Z,98446.66
2023-03-15T23:47:20.618Z,98452.84
2023-03-15T23:50:27.632Z,98416.44
2023-03-15T23:53:35.360Z,98463.41
2023-03-15T23:56:40.711Z,98461.72
2023-03-15T23:59:47.386Z,98472.09
